Time;durP1;ratioP1;P1;durP2;ratioP2;P2;SDS_P1;SDS_P2;PMS_P1;PMS_P2;Temp;Humidity;BMP_temperature;BMP_pressure;BME280_temperature;BME280_humidity;BME280_pressure;Samples;Min_cycle;Max_cycle;Signal;HPM_P1;HPM_P2
2022/04/24 08:25:22;;;;;;;;;5.00;5.00;;;;;;;;1579015;27;83582;-80
2022/04/24 08:26:07;;;;;;;;;7.00;7.00;;;;;;;;1564961;27;85854;-80
2022/04/24 08:26:53;;;;;;;;;6.67;6.67;;;;;;;;1562745;27;83697;-81
2022/04/24 08:27:38;;;;;;;;;6.67;6.67;;;;;;;;1559363;28;85415;-81
2022/04/24 08:28:25;;;;;;;;;9.33;9.33;;;;;;;;1559674;28;83632;-81
2022/04/24 08:29:11;;;;;;;;;13.75;13.75;;;;;;;;1559598;28;83633;-81
2022/04/24 08:29:56;;;;;;;;;9.00;9.00;;;;;;;;1559321;28;83818;-81
2022/04/24 08:30:42;;;;;;;;;10.00;10.00;;;;;;;;1559608;28;83680;-81
2022/04/24 08:31:27;;;;;;;;;13.25;13.25;;;;;;;;1562760;27;83473;-81
2022/04/24 08:32:13;;;;;;;;;8.33;8.33;;;;;;;;1559323;28;83738;-82
2022/04/24 08:32:58;;;;;;;;;9.67;9.67;;;;;;;;1559441;28;83929;-69
2022/04/24 08:33:43;;;;;;;;;10.33;10.33;;;;;;;;1557719;27;83908;-82
2022/04/24 08:34:28;;;;;;;;;10.67;10.67;;;;;;;;1553098;28;83815;-82
2022/04/24 08:35:15;;;;;;;;;12.00;12.00;;;;;;;;1553068;28;83574;-82
2022/04/24 08:36:00;;;;;;;;;16.00;16.00;;;;;;;;1552824;28;83728;-82
2022/04/24 08:36:45;;;;;;;;;12.00;12.00;;;;;;;;1552662;28;83449;-63
2022/04/24 08:37:30;;;;;;;;;12.33;12.33;;;;;;;;1553064;28;83674;-81
2022/04/24 08:38:15;;;;;;;;;11.67;11.67;;;;;;;;1552962;28;83613;-81
2022/04/24 08:39:01;;;;;;;;;12.33;11.33;;;;;;;;1555916;28;83503;-80
2022/04/24 08:39:46;;;;;;;;;11.33;11.33;;;;;;;;1559291;28;83778;-80
2022/04/24 08:40:31;;;;;;;;;17.00;17.00;;;;;;;;1559258;28;83282;-81
2022/04/24 08:41:20;;;;;;;;;12.00;12.00;;;;;;;;1558969;27;85336;-81
2022/04/24 08:42:05;;;;;;;;;12.00;12.00;;;;;;;;1559036;27;83428;-81
2022/04/24 08:42:52;;;;;;;;;13.00;13.00;;;;;;;;1559167;28;83702;-80
2022/04/24 08:43:37;;;;;;;;;13.00;13.00;;;;;;;;1559260;27;83531;-65
2022/04/24 08:44:22;;;;;;;;;8.67;8.67;;;;;;;;1559073;27;83843;-63
2022/04/24 08:45:12;;;;;;;;;13.67;13.67;;;;;;;;1559084;27;83379;-63
2022/04/24 08:45:57;;;;;;;;;11.25;11.25;;;;;;;;1559180;27;83398;-63
2022/04/24 08:46:45;;;;;;;;;12.00;12.00;;;;;;;;1562011;27;83269;-63
2022/04/24 08:47:31;;;;;;;;;11.00;11.00;;;;;;;;1559154;27;83978;-63
2022/04/24 08:48:17;;;;;;;;;11.00;11.00;;;;;;;;1559138;28;84312;-64
2022/04/24 08:49:02;;;;;;;;;12.00;12.00;;;;;;;;1557153;28;84092;-63
2022/04/24 08:49:47;;;;;;;;;12.00;12.00;;;;;;;;1558902;28;84105;-63
2022/04/24 08:50:33;;;;;;;;;15.25;15.25;;;;;;;;1559083;28;83968;-64
2022/04/24 08:51:19;;;;;;;;;12.00;12.00;;;;;;;;1558776;27;83880;-61
2022/04/24 08:52:05;;;;;;;;;10.80;10.80;;;;;;;;1559067;27;83955;-67
2022/04/24 08:52:51;;;;;;;;;13.00;13.00;;;;;;;;1559027;28;84188;-74
2022/04/24 08:53:38;;;;;;;;;14.25;14.25;;;;;;;;1557939;27;82950;-74
2022/04/24 08:54:23;;;;;;;;;15.20;15.20;;;;;;;;1552895;28;83260;-77
2022/04/24 08:55:09;;;;;;;;;14.75;14.75;;;;;;;;1553652;27;85266;-72
2022/04/24 08:55:54;;;;;;;;;15.00;15.00;;;;;;;;1564882;27;83998;-77
2022/04/24 08:56:40;;;;;;;;;13.50;13.50;;;;;;;;1564627;27;84222;-74
2022/04/24 08:57:30;;;;;;;;;14.00;14.00;;;;;;;;1562281;27;83214;-74
2022/04/24 08:58:15;;;;;;;;;15.60;15.60;;;;;;;;1559046;28;83983;-72
2022/04/24 08:59:00;;;;;;;;;15.75;15.75;;;;;;;;1558891;28;84139;-74
2022/04/24 08:59:46;;;;;;;;;13.50;13.50;;;;;;;;1558995;28;83162;-74
2022/04/24 09:00:33;;;;;;;;;15.20;13.80;;;;;;;;1559095;27;83482;-74
2022/04/24 09:01:18;;;;;;;;;14.20;14.20;;;;;;;;1559021;27;84214;-74
2022/04/24 09:02:04;;;;;;;;;12.25;12.25;;;;;;;;1558417;28;84551;-74
2022/04/24 09:02:50;;;;;;;;;11.00;11.00;;;;;;;;1560986;27;84432;-74
2022/04/24 09:03:36;;;;;;;;;15.20;15.20;;;;;;;;1556256;27;84449;-73
2022/04/24 09:04:21;;;;;;;;;17.00;16.00;;;;;;;;1552631;28;84162;-75
2022/04/24 09:05:06;;;;;;;;;16.25;16.25;;;;;;;;1552150;28;84033;-74
2022/04/24 09:05:52;;;;;;;;;14.00;14.00;;;;;;;;1551977;28;83840;-75
2022/04/24 09:06:37;;;;;;;;;15.50;15.50;;;;;;;;1552612;28;83272;-75
2022/04/24 09:07:24;;;;;;;;;14.75;13.75;;;;;;;;1552631;28;83777;-74
2022/04/24 09:08:10;;;;;;;;;15.20;15.20;;;;;;;;1555942;27;84197;-74
2022/04/24 09:09:03;;;;;;;;;8.00;8.00;;;;;;;;1559498;28;83624;-74
2022/04/24 09:09:50;;;;;;;;;12.20;12.20;;;;;;;;1558953;28;83089;-74
2022/04/24 09:10:52;;;;;;;;;13.20;13.20;;;;;;;;1558903;28;83303;-74
2022/04/24 09:11:37;;;;;;;;;9.60;9.60;;;;;;;;1559072;28;83366;-74
2022/04/24 09:12:24;;;;;;;;;11.25;11.25;;;;;;;;1559231;28;83448;-75
2022/04/24 09:13:09;;;;;;;;;10.40;10.40;;;;;;;;1556498;28;83756;-74
2022/04/24 09:14:58;;;;;;;;;10.20;10.20;;;;;;;;1553021;28;83319;-75
2022/04/24 09:15:52;;;;;;;;;11.00;11.00;;;;;;;;1552832;28;83259;-74
2022/04/24 09:16:38;;;;;;;;;12.00;12.00;;;;;;;;1551834;28;84927;-74
2022/04/24 09:17:24;;;;;;;;;10.20;10.20;;;;;;;;1551696;28;83467;-74
2022/04/24 09:18:09;;;;;;;;;12.20;12.20;;;;;;;;1552236;28;83646;-74
2022/04/24 09:18:54;;;;;;;;;11.75;11.75;;;;;;;;1553574;28;83416;-74
2022/04/24 09:19:40;;;;;;;;;11.25;11.25;;;;;;;;1552942;28;83234;-74
2022/04/24 09:20:25;;;;;;;;;11.50;11.50;;;;;;;;1552422;28;83540;-74
2022/04/24 09:21:11;;;;;;;;;10.75;10.75;;;;;;;;1555136;28;83490;-75
2022/04/24 09:22:04;;;;;;;;;13.00;13.00;;;;;;;;1558894;28;83970;-74
2022/04/24 09:22:50;;;;;;;;;13.60;13.60;;;;;;;;1558884;28;83402;-74
2022/04/24 09:23:39;;;;;;;;;13.00;13.00;;;;;;;;1554956;27;84465;-74
2022/04/24 09:24:27;;;;;;;;;12.40;12.40;;;;;;;;1552566;28;83584;-73
2022/04/24 09:25:12;;;;;;;;;11.60;11.60;;;;;;;;1552427;28;83539;-74
2022/04/24 09:25:58;;;;;;;;;11.25;11.25;;;;;;;;1552725;28;83449;-76
2022/04/24 09:26:53;;;;;;;;;12.75;12.75;;;;;;;;1552849;28;83475;-75
2022/04/24 09:27:39;;;;;;;;;12.20;12.20;;;;;;;;1552637;28;84070;-75
2022/04/24 09:28:34;;;;;;;;;13.60;13.60;;;;;;;;1551698;28;85099;-75
2022/04/24 09:29:21;;;;;;;;;8.60;8.60;;;;;;;;1555251;27;83924;-76
2022/04/24 09:30:11;;;;;;;;;10.40;10.40;;;;;;;;1555425;28;83496;-75
2022/04/24 09:31:01;;;;;;;;;11.00;11.00;;;;;;;;1552635;28;83907;-75
2022/04/24 09:31:47;;;;;;;;;9.80;9.80;;;;;;;;1556544;28;83158;-65
2022/04/24 09:32:37;;;;;;;;;6.00;6.00;;;;;;;;1555119;28;83435;-64
2022/04/24 09:33:22;;;;;;;;;8.20;8.20;;;;;;;;1555668;27;83508;-62
2022/04/24 09:34:07;;;;;;;;;10.00;10.00;;;;;;;;1554553;28;83613;-65
2022/04/24 09:34:52;;;;;;;;;8.50;8.50;;;;;;;;1552315;28;83541;-64
2022/04/24 09:35:39;;;;;;;;;6.25;6.25;;;;;;;;1558717;27;84682;-63
2022/04/24 09:36:25;;;;;;;;;9.60;9.60;;;;;;;;1556255;27;83610;-64
2022/04/24 09:37:10;;;;;;;;;9.75;9.75;;;;;;;;1553297;28;83376;-64
2022/04/24 09:38:15;;;;;;;;;9.50;9.50;;;;;;;;1550655;28;83813;-64
2022/04/24 09:39:00;;;;;;;;;9.60;9.60;;;;;;;;1549107;28;83556;-64
2022/04/24 09:39:45;;;;;;;;;9.25;9.25;;;;;;;;1548872;28;83619;-64
2022/04/24 09:40:40;;;;;;;;;9.00;9.00;;;;;;;;1553530;28;83987;-63
2022/04/24 09:41:25;;;;;;;;;8.40;8.40;;;;;;;;1549330;28;84004;-65
2022/04/24 09:42:12;;;;;;;;;9.00;9.00;;;;;;;;1553795;28;83546;-63
2022/04/24 09:42:59;;;;;;;;;8.00;8.00;;;;;;;;1551005;28;83633;-63
2022/04/24 09:43:44;;;;;;;;;11.00;10.00;;;;;;;;1548422;28;83609;-64
2022/04/24 09:44:37;;;;;;;;;11.50;11.50;;;;;;;;1548243;28;83500;-64
2022/04/24 09:45:24;;;;;;;;;9.20;9.20;;;;;;;;1548435;28;83754;-64
2022/04/24 09:46:10;;;;;;;;;12.40;12.40;;;;;;;;1548241;28;83996;-70
2022/04/24 09:46:59;;;;;;;;;8.00;8.00;;;;;;;;1548357;28;83591;-71
2022/04/24 09:47:44;;;;;;;;;10.00;10.00;;;;;;;;1548134;28;83955;-71
2022/04/24 09:48:29;;;;;;;;;11.25;10.25;;;;;;;;1552348;28;83538;-71
2022/04/24 09:49:15;;;;;;;;;9.00;9.00;;;;;;;;1547961;28;83625;-71
2022/04/24 09:50:00;;;;;;;;;10.00;10.00;;;;;;;;1548213;28;84482;-72
2022/04/24 09:50:46;;;;;;;;;6.50;6.50;;;;;;;;1548246;28;83343;-72
2022/04/24 09:51:35;;;;;;;;;10.00;10.00;;;;;;;;1548279;28;83900;-72
2022/04/24 09:52:24;;;;;;;;;13.00;13.00;;;;;;;;1552736;28;83757;-72
2022/04/24 09:53:14;;;;;;;;;10.00;10.00;;;;;;;;1549578;28;85485;-72
2022/04/24 09:54:00;;;;;;;;;7.20;7.20;;;;;;;;1550845;28;83240;-72
2022/04/24 09:54:47;;;;;;;;;9.00;9.00;;;;;;;;1551754;28;83922;-72
2022/04/24 09:55:32;;;;;;;;;9.20;9.20;;;;;;;;1552483;28;84060;-72
2022/04/24 09:56:18;;;;;;;;;8.50;8.50;;;;;;;;1548421;28;84465;-72
2022/04/24 09:57:04;;;;;;;;;7.40;7.40;;;;;;;;1548374;28;84204;-72
2022/04/24 09:57:50;;;;;;;;;8.00;8.00;;;;;;;;1548624;28;84608;-72
2022/04/24 09:58:37;;;;;;;;;9.20;8.40;;;;;;;;1548590;28;84182;-72
2022/04/24 09:59:23;;;;;;;;;8.20;8.20;;;;;;;;1549291;28;85183;-72
2022/04/24 10:00:08;;;;;;;;;5.00;5.00;;;;;;;;1549117;28;83969;-72
2022/04/24 10:00:54;;;;;;;;;8.25;8.25;;;;;;;;1554392;28;84206;-72
2022/04/24 10:01:39;;;;;;;;;9.00;9.00;;;;;;;;1549497;28;84122;-72
2022/04/24 10:02:25;;;;;;;;;10.75;10.75;;;;;;;;1554527;28;84305;-72
2022/04/24 10:03:14;;;;;;;;;7.80;7.80;;;;;;;;1548815;28;84356;-72
2022/04/24 10:04:00;;;;;;;;;7.40;7.40;;;;;;;;1553072;28;83306;-72
2022/04/24 10:04:46;;;;;;;;;8.25;8.25;;;;;;;;1553508;28;83233;-72
2022/04/24 10:05:31;;;;;;;;;8.80;8.80;;;;;;;;1554407;28;84046;-72
2022/04/24 10:06:17;;;;;;;;;8.00;8.00;;;;;;;;1553568;28;84131;-72
2022/04/24 10:07:04;;;;;;;;;8.50;8.50;;;;;;;;1553326;28;84130;-72
2022/04/24 10:07:50;;;;;;;;;10.20;10.20;;;;;;;;1551975;28;84141;-72
2022/04/24 10:08:35;;;;;;;;;8.00;8.00;;;;;;;;1552009;28;84143;-72
2022/04/24 10:09:22;;;;;;;;;8.00;8.00;;;;;;;;1548854;28;84117;-72
2022/04/24 10:10:07;;;;;;;;;9.00;9.00;;;;;;;;1549877;28;84124;-72
2022/04/24 10:10:52;;;;;;;;;7.50;7.50;;;;;;;;1548562;28;83222;-72
2022/04/24 10:11:38;;;;;;;;;7.00;7.00;;;;;;;;1553084;28;85330;-72
2022/04/24 10:12:25;;;;;;;;;7.00;7.00;;;;;;;;1551876;28;84391;-72
2022/04/24 10:13:11;;;;;;;;;7.20;7.20;;;;;;;;1552730;28;84060;-72
2022/04/24 10:14:01;;;;;;;;;9.00;9.00;;;;;;;;1551509;28;84163;-72
2022/04/24 10:14:56;;;;;;;;;8.20;8.20;;;;;;;;1553299;28;84079;-72
2022/04/24 10:15:49;;;;;;;;;8.40;8.40;;;;;;;;1550189;28;84420;-72
2022/04/24 10:16:43;;;;;;;;;7.20;7.20;;;;;;;;1551500;28;84251;-72
2022/04/24 10:17:40;;;;;;;;;7.60;7.60;;;;;;;;1552424;28;83411;-72
2022/04/24 10:18:40;;;;;;;;;6.60;6.60;;;;;;;;1550522;28;83342;-72
2022/04/24 10:19:28;;;;;;;;;10.80;10.80;;;;;;;;1550776;28;83817;-72
2022/04/24 10:20:32;;;;;;;;;5.80;5.80;;;;;;;;1552835;28;83670;-72
2022/04/24 10:21:29;;;;;;;;;5.60;5.60;;;;;;;;1548330;28;83632;-72
2022/04/24 10:22:24;;;;;;;;;5.00;5.00;;;;;;;;1553378;28;83336;-73
2022/04/24 10:23:09;;;;;;;;;7.00;7.00;;;;;;;;1552730;28;83950;-72
2022/04/24 10:23:54;;;;;;;;;7.00;7.00;;;;;;;;1553289;28;83214;-72
2022/04/24 10:24:43;;;;;;;;;5.00;5.00;;;;;;;;1553915;28;83519;-73
2022/04/24 10:25:30;;;;;;;;;6.20;6.20;;;;;;;;1550223;28;83447;-72
2022/04/24 10:26:20;;;;;;;;;7.00;7.00;;;;;;;;1550152;28;83138;-72
2022/04/24 10:27:07;;;;;;;;;2.00;2.00;;;;;;;;1552687;28;83394;-72
2022/04/24 10:27:52;;;;;;;;;8.40;8.40;;;;;;;;1549076;28;83415;-72
2022/04/24 10:28:38;;;;;;;;;8.25;8.25;;;;;;;;1548294;28;83414;-72
2022/04/24 10:29:24;;;;;;;;;6.20;6.20;;;;;;;;1548743;28;83358;-72
2022/04/24 10:30:19;;;;;;;;;7.20;7.20;;;;;;;;1548603;28;83371;-72
2022/04/24 10:31:05;;;;;;;;;5.60;5.60;;;;;;;;1551682;28;83349;-73
2022/04/24 10:31:50;;;;;;;;;6.80;6.80;;;;;;;;1549272;28;83311;-72
2022/04/24 10:32:36;;;;;;;;;6.00;6.00;;;;;;;;1548658;28;83696;-71
2022/04/24 10:33:23;;;;;;;;;6.40;6.40;;;;;;;;1551592;28;83577;-71
2022/04/24 10:34:09;;;;;;;;;4.80;4.80;;;;;;;;1547938;28;83243;-72
2022/04/24 10:34:55;;;;;;;;;6.80;6.80;;;;;;;;1548490;28;83424;-71
2022/04/24 10:35:49;;;;;;;;;6.00;6.00;;;;;;;;1547462;28;85055;-71
2022/04/24 10:36:34;;;;;;;;;5.20;5.20;;;;;;;;1551551;28;83663;-72
2022/04/24 10:37:26;;;;;;;;;6.00;6.00;;;;;;;;1552731;28;83475;-71
2022/04/24 10:38:12;;;;;;;;;7.40;7.40;;;;;;;;1549856;28;83358;-71
2022/04/24 10:38:57;;;;;;;;;6.75;6.75;;;;;;;;1548108;28;83447;-71
2022/04/24 10:39:42;;;;;;;;;7.25;7.25;;;;;;;;1556242;28;83550;-71
2022/04/24 10:40:28;;;;;;;;;6.75;6.75;;;;;;;;1552369;28;85025;-71
2022/04/24 10:41:15;;;;;;;;;6.00;6.00;;;;;;;;1552486;28;83783;-72
2022/04/24 10:42:06;;;;;;;;;7.00;7.00;;;;;;;;1552944;28;83608;-71
2022/04/24 10:42:51;;;;;;;;;7.40;7.40;;;;;;;;1548408;28;84560;-71
2022/04/24 10:43:46;;;;;;;;;4.25;4.25;;;;;;;;1552314;28;83582;-71
2022/04/24 10:44:32;;;;;;;;;7.00;7.00;;;;;;;;1553797;28;83821;-71
2022/04/24 10:45:20;;;;;;;;;6.60;6.60;;;;;;;;1554525;28;83288;-71
2022/04/24 10:46:15;;;;;;;;;5.40;5.40;;;;;;;;1551746;28;83786;-71
2022/04/24 10:47:10;;;;;;;;;7.40;7.40;;;;;;;;1548247;28;83559;-71
2022/04/24 10:47:55;;;;;;;;;7.20;7.20;;;;;;;;1547875;28;83744;-70
2022/04/24 10:48:41;;;;;;;;;9.25;8.50;;;;;;;;1548248;28;84090;-71
2022/04/24 10:49:33;;;;;;;;;8.25;8.25;;;;;;;;1552187;28;84291;-71
2022/04/24 10:50:19;;;;;;;;;8.60;8.60;;;;;;;;1552191;28;83790;-71
2022/04/24 10:51:05;;;;;;;;;7.60;7.60;;;;;;;;1551272;28;83796;-75
2022/04/24 10:51:59;;;;;;;;;10.00;10.00;;;;;;;;1548575;28;83574;-75
2022/04/24 10:52:45;;;;;;;;;7.20;7.20;;;;;;;;1548024;28;83740;-75
2022/04/24 10:53:47;;;;;;;;;5.40;5.40;;;;;;;;1553830;28;83661;-75
2022/04/24 10:54:37;;;;;;;;;8.40;7.60;;;;;;;;1552723;28;83535;-75
2022/04/24 10:55:26;;;;;;;;;8.80;8.80;;;;;;;;1549522;28;83423;-73
2022/04/24 10:56:12;;;;;;;;;6.20;6.20;;;;;;;;1549206;28;83769;-74
2022/04/24 10:56:59;;;;;;;;;7.60;7.60;;;;;;;;1550151;28;83825;-72
2022/04/24 10:57:54;;;;;;;;;9.20;9.20;;;;;;;;1548212;28;83518;-74
2022/04/24 10:58:39;;;;;;;;;9.80;9.80;;;;;;;;1553518;28;84972;-74
2022/04/24 10:59:24;;;;;;;;;8.00;8.00;;;;;;;;1551986;28;84158;-75
2022/04/24 11:00:13;;;;;;;;;7.75;7.75;;;;;;;;1549722;28;83425;-75
2022/04/24 11:01:07;;;;;;;;;5.60;5.60;;;;;;;;1552139;28;86406;-76
2022/04/24 11:01:53;;;;;;;;;7.20;7.20;;;;;;;;1554072;28;84061;-74
2022/04/24 11:02:39;;;;;;;;;8.40;8.40;;;;;;;;1551210;28;83492;-74
2022/04/24 11:03:37;;;;;;;;;18.33;18.33;;;;;;;;1555841;28;84487;-74
2022/04/24 11:04:23;;;;;;;;;16.00;16.00;;;;;;;;1552642;28;84162;-75
2022/04/24 11:05:10;;;;;;;;;14.50;14.50;;;;;;;;1553621;28;83802;-74
2022/04/24 11:05:58;;;;;;;;;15.25;15.25;;;;;;;;1548437;28;84234;-74
2022/04/24 11:06:57;;;;;;;;;13.75;13.75;;;;;;;;1551841;28;84213;-72
2022/04/24 11:07:43;;;;;;;;;16.25;16.25;;;;;;;;1553885;28;84221;-72
2022/04/24 11:08:28;;;;;;;;;17.25;17.25;;;;;;;;1552032;28;83799;-72
2022/04/24 11:09:13;;;;;;;;;15.33;15.33;;;;;;;;1548086;28;83859;-72
2022/04/24 11:10:01;;;;;;;;;16.00;15.00;;;;;;;;1547669;28;84284;-72
2022/04/24 11:10:49;;;;;;;;;14.75;14.75;;;;;;;;1550190;28;84045;-72
2022/04/24 11:11:44;;;;;;;;;17.75;16.75;;;;;;;;1552142;28;84356;-72
2022/04/24 11:12:31;;;;;;;;;12.25;12.25;;;;;;;;1550991;28;84068;-72
2022/04/24 11:13:17;;;;;;;;;18.75;18.75;;;;;;;;1551850;28;84446;-72
2022/04/24 11:14:03;;;;;;;;;31.50;28.50;;;;;;;;1550836;28;84154;-72
2022/04/24 11:14:48;;;;;;;;;22.33;22.33;;;;;;;;1548432;28;84436;-72
2022/04/24 11:15:34;;;;;;;;;20.67;20.67;;;;;;;;1549427;28;84092;-72
2022/04/24 11:16:19;;;;;;;;;22.00;22.00;;;;;;;;1552583;28;83817;-72
2022/04/24 11:17:06;;;;;;;;;25.67;25.67;;;;;;;;1549638;28;84247;-72
2022/04/24 11:17:51;;;;;;;;;26.00;26.00;;;;;;;;1554088;28;84166;-72
2022/04/24 11:18:36;;;;;;;;;19.00;19.00;;;;;;;;1553220;28;84103;-72
2022/04/24 11:19:27;;;;;;;;;15.00;13.33;;;;;;;;1552099;28;83871;-72
2022/04/24 11:20:16;;;;;;;;;11.75;11.75;;;;;;;;1548367;28;83967;-72
2022/04/24 11:21:03;;;;;;;;;9.75;9.75;;;;;;;;1552583;28;87376;-72
2022/04/24 11:21:53;;;;;;;;;13.50;13.50;;;;;;;;1547289;28;84045;-72
2022/04/24 11:22:46;;;;;;;;;12.75;12.75;;;;;;;;1553102;28;84088;-72
2022/04/24 11:23:31;;;;;;;;;18.00;18.00;;;;;;;;1550731;28;83219;-72
2022/04/24 11:24:17;;;;;;;;;15.67;15.67;;;;;;;;1554071;28;84339;-72
2022/04/24 11:25:02;;;;;;;;;16.67;16.67;;;;;;;;1547882;28;84214;-72
2022/04/24 11:25:52;;;;;;;;;12.33;12.33;;;;;;;;1553085;28;84117;-72
2022/04/24 11:26:37;;;;;;;;;13.00;13.00;;;;;;;;1548377;28;83533;-72
2022/04/24 11:27:25;;;;;;;;;14.67;14.67;;;;;;;;1548067;28;83516;-72
2022/04/24 11:28:10;;;;;;;;;27.75;27.75;;;;;;;;1547854;28;86194;-72
2022/04/24 11:28:55;;;;;;;;;36.33;33.67;;;;;;;;1548429;28;83452;-72
2022/04/24 11:29:44;;;;;;;;;27.67;27.67;;;;;;;;1547442;28;83793;-72
2022/04/24 11:30:33;;;;;;;;;20.50;20.50;;;;;;;;1547057;28;83205;-72
2022/04/24 11:31:19;;;;;;;;;34.50;32.75;;;;;;;;1548159;28;83843;-72
2022/04/24 11:32:07;;;;;;;;;53.00;43.60;;;;;;;;1547523;28;83444;-72
2022/04/24 11:32:54;;;;;;;;;49.25;41.25;;;;;;;;1547873;28;84016;-72
2022/04/24 11:33:49;;;;;;;;;43.25;38.00;;;;;;;;1547319;28;83743;-72
2022/04/24 11:34:35;;;;;;;;;43.00;37.75;;;;;;;;1548430;28;83631;-72
2022/04/24 11:35:21;;;;;;;;;44.00;38.25;;;;;;;;1547702;28;83227;-73
2022/04/24 11:36:06;;;;;;;;;33.00;31.67;;;;;;;;1547935;28;83717;-73
2022/04/24 11:36:57;;;;;;;;;27.00;26.00;;;;;;;;1551420;28;83605;-72
2022/04/24 11:37:44;;;;;;;;;16.25;16.25;;;;;;;;1549235;28;83579;-72
2022/04/24 11:38:29;;;;;;;;;15.50;15.50;;;;;;;;1549073;28;83455;-73
2022/04/24 11:39:15;;;;;;;;;13.67;13.67;;;;;;;;1548622;28;83503;-72
2022/04/24 11:40:01;;;;;;;;;13.60;13.60;;;;;;;;1554094;28;83392;-73
2022/04/24 11:40:46;;;;;;;;;11.50;11.50;;;;;;;;1548755;28;83619;-73
2022/04/24 11:41:32;;;;;;;;;11.40;11.40;;;;;;;;1551960;28;85778;-72
2022/04/24 11:42:17;;;;;;;;;9.25;9.25;;;;;;;;1549558;28;83567;-72
2022/04/24 11:43:03;;;;;;;;;10.50;10.50;;;;;;;;1553711;28;83519;-72
2022/04/24 11:43:48;;;;;;;;;8.20;8.20;;;;;;;;1552473;28;83583;-72
2022/04/24 11:50:13;;;;;;;;;9.00;9.00;;;;;;;;1550296;28;83356;-73
2022/04/24 11:51:02;;;;;;;;;8.00;8.00;;;;;;;;1547525;28;83722;-73
2022/04/24 11:51:47;;;;;;;;;8.00;8.00;;;;;;;;1547975;28;83690;-72
2022/04/24 11:52:34;;;;;;;;;7.00;7.00;;;;;;;;1548866;28;83481;-72
2022/04/24 11:53:20;;;;;;;;;6.00;6.00;;;;;;;;1554374;28;83509;-73
2022/04/24 11:54:10;;;;;;;;;8.50;8.50;;;;;;;;1553386;28;83394;-73
2022/04/24 11:54:56;;;;;;;;;5.60;5.60;;;;;;;;1553837;28;83688;-72
2022/04/24 11:56:48;;;;;;;;;7.40;7.40;;;;;;;;1549286;28;83151;-73
2022/04/24 11:57:34;;;;;;;;;3.50;3.50;;;;;;;;1550953;28;83642;-73
2022/04/24 11:58:21;;;;;;;;;6.50;6.50;;;;;;;;1553289;28;83371;-72
2022/04/24 11:59:16;;;;;;;;;6.25;6.25;;;;;;;;1552689;28;83713;-72
2022/04/24 12:00:03;;;;;;;;;7.00;7.00;;;;;;;;1551506;28;83764;-72
2022/04/24 12:00:48;;;;;;;;;7.25;7.25;;;;;;;;1550600;28;85407;-72
2022/04/24 12:01:33;;;;;;;;;7.00;7.00;;;;;;;;1551355;28;83933;-72
2022/04/24 12:02:22;;;;;;;;;6.25;6.25;;;;;;;;1547855;28;83656;-72
2022/04/24 12:03:08;;;;;;;;;4.25;4.25;;;;;;;;1552305;28;84202;-72
2022/04/24 12:03:53;;;;;;;;;6.33;6.33;;;;;;;;1551186;28;83358;-72
2022/04/24 12:04:39;;;;;;;;;7.00;7.00;;;;;;;;1548876;28;83369;-72
2022/04/24 12:05:28;;;;;;;;;6.00;6.00;;;;;;;;1548993;28;83685;-72
2022/04/24 12:06:13;;;;;;;;;7.00;7.00;;;;;;;;1549275;28;83971;-73
2022/04/24 12:07:08;;;;;;;;;7.00;7.00;;;;;;;;1554050;28;83670;-72
2022/04/24 12:07:55;;;;;;;;;6.25;6.25;;;;;;;;1551282;28;83502;-72
2022/04/24 12:08:45;;;;;;;;;6.00;6.00;;;;;;;;1553230;28;83847;-73
2022/04/24 12:09:31;;;;;;;;;8.00;8.00;;;;;;;;1553630;28;83626;-72
2022/04/24 12:10:22;;;;;;;;;9.00;9.00;;;;;;;;1553158;28;83288;-72
2022/04/24 12:11:07;;;;;;;;;7.50;7.50;;;;;;;;1553406;28;83947;-65
2022/04/24 12:12:02;;;;;;;;;7.00;7.00;;;;;;;;1550990;28;83722;-66
2022/04/24 12:12:48;;;;;;;;;6.75;6.75;;;;;;;;1552955;28;83891;-66
2022/04/24 12:13:34;;;;;;;;;5.00;5.00;;;;;;;;1552605;28;83138;-66
2022/04/24 12:14:26;;;;;;;;;5.50;5.50;;;;;;;;1547794;28;83048;-66
2022/04/24 12:15:15;;;;;;;;;4.75;4.75;;;;;;;;1551030;28;83966;-66
2022/04/24 12:16:00;;;;;;;;;5.00;5.00;;;;;;;;1547710;28;83096;-66
2022/04/24 12:16:46;;;;;;;;;5.00;5.00;;;;;;;;1548392;28;84181;-67
2022/04/24 12:17:31;;;;;;;;;5.00;4.75;;;;;;;;1547202;28;84518;-70
2022/04/24 12:18:21;;;;;;;;;4.33;4.33;;;;;;;;1552197;28;84358;-70
2022/04/24 12:19:08;;;;;;;;;6.75;5.25;;;;;;;;1552478;28;84145;-70
2022/04/24 12:19:55;;;;;;;;;4.50;4.50;;;;;;;;1550295;28;83329;-70
2022/04/24 12:20:41;;;;;;;;;6.25;6.25;;;;;;;;1548300;28;84704;-71
2022/04/24 12:21:27;;;;;;;;;5.00;5.00;;;;;;;;1552336;28;84313;-70
2022/04/24 12:22:12;;;;;;;;;3.75;3.75;;;;;;;;1552301;28;84517;-70
2022/04/24 12:23:07;;;;;;;;;5.00;5.00;;;;;;;;1551360;28;84684;-70
2022/04/24 12:23:53;;;;;;;;;4.00;4.00;;;;;;;;1550501;28;84040;-71
2022/04/24 12:24:40;;;;;;;;;6.00;6.00;;;;;;;;1552148;28;86424;-70
2022/04/24 12:25:25;;;;;;;;;5.00;5.00;;;;;;;;1547997;28;83912;-70
2022/04/24 12:26:10;;;;;;;;;6.00;6.00;;;;;;;;1552359;28;83369;-71
2022/04/24 12:27:01;;;;;;;;;4.00;4.00;;;;;;;;1549922;28;83927;-73
2022/04/24 12:27:57;;;;;;;;;4.20;4.20;;;;;;;;1547691;28;84431;-73
2022/04/24 12:28:42;;;;;;;;;5.00;5.00;;;;;;;;1547594;28;83219;-74
2022/04/24 12:29:27;;;;;;;;;4.75;4.75;;;;;;;;1553069;28;84330;-73
2022/04/24 12:30:12;;;;;;;;;5.75;5.75;;;;;;;;1551629;28;84422;-73
2022/04/24 12:30:58;;;;;;;;;5.00;5.00;;;;;;;;1548810;28;84563;-73
2022/04/24 12:31:44;;;;;;;;;4.00;4.00;;;;;;;;1553381;28;84457;-73
2022/04/24 12:32:30;;;;;;;;;5.00;5.00;;;;;;;;1548266;28;83329;-73
2022/04/24 12:33:15;;;;;;;;;5.00;5.00;;;;;;;;1548118;28;84177;-73
2022/04/24 12:34:00;;;;;;;;;6.00;6.00;;;;;;;;1547226;28;83928;-73
2022/04/24 12:34:46;;;;;;;;;4.50;4.50;;;;;;;;1548023;28;84128;-72
2022/04/24 12:35:35;;;;;;;;;4.00;4.00;;;;;;;;1550155;28;83152;-73
2022/04/24 12:36:20;;;;;;;;;4.20;4.20;;;;;;;;1551815;28;83453;-72
2022/04/24 12:37:06;;;;;;;;;9.00;9.00;;;;;;;;1550011;28;83318;-73
2022/04/24 12:37:51;;;;;;;;;8.00;8.00;;;;;;;;1547095;28;83520;-74
2022/04/24 12:38:36;;;;;;;;;10.00;10.00;;;;;;;;1547252;28;83357;-73
2022/04/24 12:39:23;;;;;;;;;8.00;8.00;;;;;;;;1549219;28;83925;-73
2022/04/24 12:40:09;;;;;;;;;7.00;7.00;;;;;;;;1548255;28;83502;-74
2022/04/24 12:40:59;;;;;;;;;6.00;6.00;;;;;;;;1547726;28;83489;-72
2022/04/24 12:41:44;;;;;;;;;7.00;7.00;;;;;;;;1547874;28;82889;-72
2022/04/24 12:42:30;;;;;;;;;9.00;9.00;;;;;;;;1552577;28;83441;-72
2022/04/24 12:43:23;;;;;;;;;10.40;10.20;;;;;;;;1551634;28;83489;-72
2022/04/24 12:44:08;;;;;;;;;5.80;5.80;;;;;;;;1550767;28;83695;-75
2022/04/24 12:44:54;;;;;;;;;5.00;5.00;;;;;;;;1547073;28;83363;-71
2022/04/24 12:45:39;;;;;;;;;7.25;7.25;;;;;;;;1552141;28;83300;-71
2022/04/24 12:46:24;;;;;;;;;12.33;12.33;;;;;;;;1548595;28;83492;-71
2022/04/24 12:47:10;;;;;;;;;12.33;10.33;;;;;;;;1548991;28;83911;-71
2022/04/24 12:47:55;;;;;;;;;11.67;11.67;;;;;;;;1549812;28;82972;-71
2022/04/24 12:48:45;;;;;;;;;12.67;12.67;;;;;;;;1549434;28;83461;-70
2022/04/24 12:49:31;;;;;;;;;9.50;9.50;;;;;;;;1552264;28;85439;-70
2022/04/24 12:50:16;;;;;;;;;5.00;5.00;;;;;;;;1550860;28;83173;-71
2022/04/24 12:51:02;;;;;;;;;5.75;5.75;;;;;;;;1548098;28;83530;-71
2022/04/24 12:51:47;;;;;;;;;6.00;6.00;;;;;;;;1551380;28;83356;-71
2022/04/24 12:52:32;;;;;;;;;6.00;6.00;;;;;;;;1548380;28;83686;-70
2022/04/24 12:53:18;;;;;;;;;3.00;3.00;;;;;;;;1547657;28;83145;-71
2022/04/24 12:54:03;;;;;;;;;7.00;7.00;;;;;;;;1551195;28;83440;-71
2022/04/24 12:54:51;;;;;;;;;11.67;11.67;;;;;;;;1549995;28;83440;-67
2022/04/24 12:55:36;;;;;;;;;8.50;8.50;;;;;;;;1547630;28;83631;-70
2022/04/24 12:56:21;;;;;;;;;6.00;6.00;;;;;;;;1553074;28;83405;-71
2022/04/24 12:57:07;;;;;;;;;5.00;5.00;;;;;;;;1551019;28;83478;-71
2022/04/24 12:57:54;;;;;;;;;4.50;4.50;;;;;;;;1550495;28;83759;-75
2022/04/24 12:58:39;;;;;;;;;5.00;5.00;;;;;;;;1553442;28;83531;-76
2022/04/24 12:59:24;;;;;;;;;4.33;4.33;;;;;;;;1550043;28;83503;-71
2022/04/24 13:00:11;;;;;;;;;5.00;5.00;;;;;;;;1547018;28;83748;-71
2022/04/24 13:00:56;;;;;;;;;7.00;7.00;;;;;;;;1547437;28;83652;-72
2022/04/24 13:01:43;;;;;;;;;7.00;7.00;;;;;;;;1547855;28;83730;-72
2022/04/24 13:02:30;;;;;;;;;7.25;7.25;;;;;;;;1551586;28;83758;-71
2022/04/24 13:03:15;;;;;;;;;6.50;6.50;;;;;;;;1551571;28;83103;-71
2022/04/24 13:04:00;;;;;;;;;4.00;4.00;;;;;;;;1553627;28;83700;-71
2022/04/24 13:04:46;;;;;;;;;5.00;5.00;;;;;;;;1553123;28;83351;-71
2022/04/24 13:05:31;;;;;;;;;10.00;10.00;;;;;;;;1549053;28;83487;-71
2022/04/24 13:06:17;;;;;;;;;8.33;8.33;;;;;;;;1549362;28;83761;-71
2022/04/24 13:07:03;;;;;;;;;5.50;5.50;;;;;;;;1549253;28;83667;-71
2022/04/24 13:07:48;;;;;;;;;8.00;8.00;;;;;;;;1547632;28;83453;-71
2022/04/24 13:08:33;;;;;;;;;6.00;6.00;;;;;;;;1549004;28;83430;-71
2022/04/24 13:09:18;;;;;;;;;9.00;9.00;;;;;;;;1547492;28;83631;-71
2022/04/24 13:10:04;;;;;;;;;4.67;4.67;;;;;;;;1548193;28;84006;-71
2022/04/24 13:10:49;;;;;;;;;6.00;6.00;;;;;;;;1547729;28;85565;-71
2022/04/24 13:11:34;;;;;;;;;6.67;6.67;;;;;;;;1547081;28;83994;-71
2022/04/24 13:12:21;;;;;;;;;5.67;5.67;;;;;;;;1544541;28;85334;-71
2022/04/24 13:13:07;;;;;;;;;4.75;4.75;;;;;;;;1548312;28;83390;-71